createdAt,value
2022-10-08T00:02:15.737Z,100445.75
2022-10-08T00:07:24.085Z,100432.03
2022-10-08T00:12:30.759Z,100431.38
2022-10-08T00:17:40.112Z,100430.56
2022-10-08T00:22:46.239Z,100432.22
2022-10-08T00:27:51.957Z,100427.63
2022-10-08T00:33:00.983Z,100418.09
2022-10-08T00:38:11.938Z,100411.84
2022-10-08T00:43:40.429Z,100414.16
2022-10-08T00:48:50.101Z,100410.56
2022-10-08T00:53:58.986Z,100404.31
2022-10-08T00:59:03.594Z,100397.78
2022-10-08T01:04:31.450Z,100400.41
2022-10-08T01:09:50.263Z,100387.53
2022-10-08T01:15:04.038Z,100393.13
2022-10-08T01:20:41.826Z,100388.16
2022-10-08T01:26:01.054Z,100398.44
2022-10-08T01:31:27.214Z,100394.59
2022-10-08T01:36:39.458Z,100387.84
2022-10-08T01:41:53.442Z,100395.91
2022-10-08T01:47:05.104Z,100388.69
2022-10-08T01:52:17.016Z,100384.75
2022-10-08T01:57:33.511Z,100381.31
2022-10-08T02:02:47.526Z,100382.88
2022-10-08T02:13:22.651Z,100372.53
2022-10-08T02:18:59.801Z,100366.41
2022-10-08T02:24:15.322Z,100373.09
2022-10-08T02:29:24.659Z,100372.72
2022-10-08T02:34:42.631Z,100363.19
2022-10-08T02:39:58.411Z,100372.34
2022-10-08T02:45:11.576Z,100371.50
2022-10-08T02:50:32.528Z,100373.41
2022-10-08T02:55:46.880Z,100378.66
2022-10-08T03:01:27.495Z,100388.06
2022-10-08T03:06:36.187Z,100389.56
2022-10-08T03:11:43.310Z,100385.44
2022-10-08T03:16:58.171Z,100386.84
2022-10-08T03:22:09.360Z,100382.28
2022-10-08T03:27:19.224Z,100398.91
2022-10-08T03:32:23.361Z,100400.69
2022-10-08T03:37:34.602Z,100392.25
2022-10-08T03:42:45.621Z,100395.19
2022-10-08T03:47:55.106Z,100387.47
2022-10-08T03:53:26.783Z,100386.63
2022-10-08T03:58:31.410Z,100393.97
2022-10-08T04:03:46.408Z,100387.06
2022-10-08T04:09:08.143Z,100394.22
2022-10-08T04:14:17.215Z,100390.94
2022-10-08T04:19:24.922Z,100387.75
2022-10-08T04:24:37.157Z,100385.97
2022-10-08T04:29:49.071Z,100391.53
2022-10-08T04:34:57.181Z,100394.97
2022-10-08T04:40:14.674Z,100388.44
2022-10-08T04:45:24.496Z,100396.19
2022-10-08T04:50:31.043Z,100404.66
2022-10-08T04:55:38.760Z,100397.56
2022-10-08T05:00:46.599Z,100396.84
2022-10-08T05:06:01.665Z,100409.19
2022-10-08T05:11:10.383Z,100415.25
2022-10-08T05:16:20.279Z,100426.88
2022-10-08T05:21:39.300Z,100428.34
2022-10-08T05:27:04.021Z,100423.06
2022-10-08T05:32:22.692Z,100451.16
2022-10-08T05:37:28.133Z,100446.56
2022-10-08T05:42:36.259Z,100454.16
2022-10-08T05:47:45.295Z,100460.81
2022-10-08T05:52:49.854Z,100459.88
2022-10-08T05:58:17.544Z,100470.63
2022-10-08T06:03:27.360Z,100461.75
2022-10-08T06:08:40.302Z,100466.84
2022-10-08T06:14:07.634Z,100472.97
2022-10-08T06:19:13.753Z,100466.84
2022-10-08T06:24:27.300Z,100484.97
2022-10-08T06:29:44.157Z,100486.88
2022-10-08T06:34:57.712Z,100493.59
2022-10-08T06:40:02.860Z,100493.09
2022-10-08T06:45:13.341Z,100491.47
2022-10-08T06:50:18.573Z,100504.44
2022-10-08T06:55:28.785Z,100493.00
2022-10-08T07:00:35.191Z,100497.66
2022-10-08T07:05:41.394Z,100508.78
2022-10-08T07:10:52.542Z,100512.97
2022-10-08T07:16:06.591Z,100519.50
2022-10-08T07:21:18.723Z,100508.03
2022-10-08T07:26:25.923Z,100521.84
2022-10-08T07:31:44.477Z,100516.66
2022-10-08T07:36:56.465Z,100506.31
2022-10-08T07:42:03.431Z,100525.03
2022-10-08T07:47:23.687Z,100514.44
2022-10-08T07:52:33.160Z,100517.31
2022-10-08T07:57:39.406Z,100517.66
2022-10-08T08:02:47.093Z,100512.88
2022-10-08T08:07:55.462Z,100526.22
2022-10-08T08:13:04.143Z,100526.59
2022-10-08T08:18:16.554Z,100521.13
2022-10-08T08:23:42.330Z,100513.50
2022-10-08T08:28:57.554Z,100526.72
2022-10-08T08:34:09.916Z,100533.31
2022-10-08T08:39:26.238Z,100538.56
2022-10-08T08:44:43.442Z,100542.16
2022-10-08T08:50:02.198Z,100535.03
2022-10-08T08:55:19.415Z,100547.59
2022-10-08T09:00:44.711Z,100553.22
2022-10-08T09:06:14.445Z,100558.16
2022-10-08T09:11:22.213Z,100560.41
2022-10-08T09:16:32.524Z,100559.09
2022-10-08T09:21:45.461Z,100562.63
2022-10-08T09:26:51.244Z,100558.03
2022-10-08T09:37:27.210Z,100566.09
2022-10-08T09:42:30.244Z,100564.69
2022-10-08T09:47:33.205Z,100582.88
2022-10-08T09:52:40.333Z,100582.53
2022-10-08T09:57:45.659Z,100579.81
2022-10-08T10:02:54.332Z,100575.53
2022-10-08T10:07:58.957Z,100590.19
2022-10-08T10:13:06.489Z,100581.88
2022-10-08T10:18:14.431Z,100591.69
2022-10-08T10:23:23.723Z,100597.97
2022-10-08T10:28:36.243Z,100593.41
2022-10-08T10:33:49.259Z,100596.81
2022-10-08T10:39:06.231Z,100591.81
2022-10-08T10:44:14.376Z,100597.13
2022-10-08T10:49:20.170Z,100586.50
2022-10-08T10:54:56.277Z,100594.56
2022-10-08T11:00:06.019Z,100600.16
2022-10-08T11:05:17.382Z,100605.41
2022-10-08T11:10:33.453Z,100602.81
2022-10-08T11:15:44.617Z,100607.19
2022-10-08T11:20:59.762Z,100605.53
2022-10-08T11:26:22.013Z,100605.31
2022-10-08T11:31:36.755Z,100608.19
2022-10-08T11:36:46.322Z,100612.25
2022-10-08T11:42:01.829Z,100613.50
2022-10-08T11:47:44.563Z,100616.88
2022-10-08T11:53:01.420Z,100615.47
2022-10-08T11:58:37.039Z,100622.84
2022-10-08T12:03:47.706Z,100637.09
2022-10-08T12:09:00.050Z,100643.56
2022-10-08T12:14:47.549Z,100627.00
2022-10-08T12:20:31.093Z,100627.34
2022-10-08T12:25:43.064Z,100629.47
2022-10-08T12:31:19.151Z,100632.28
2022-10-08T12:36:48.821Z,100628.34
2022-10-08T12:42:15.398Z,100634.78
2022-10-08T12:47:45.763Z,100631.94
2022-10-08T12:52:56.672Z,100643.72
2022-10-08T12:58:04.838Z,100635.47
2022-10-08T13:03:28.638Z,100643.25
2022-10-08T13:08:36.256Z,100647.41
2022-10-08T13:13:59.181Z,100655.03
2022-10-08T13:19:31.348Z,100643.47
2022-10-08T13:24:46.539Z,100658.69
2022-10-08T13:30:13.557Z,100655.03
2022-10-08T13:35:42.071Z,100666.28
2022-10-08T13:41:06.264Z,100667.59
2022-10-08T13:46:15.518Z,100668.13
2022-10-08T13:51:57.644Z,100672.25
2022-10-08T13:57:13.240Z,100666.94
2022-10-08T14:02:45.271Z,100669.09
2022-10-08T14:07:55.160Z,100663.63
2022-10-08T14:13:03.944Z,100664.78
2022-10-08T14:18:10.647Z,100661.97
2022-10-08T14:23:35.853Z,100675.19
2022-10-08T14:28:54.699Z,100683.94
2022-10-08T14:34:06.123Z,100684.94
2022-10-08T14:39:45.916Z,100682.28
2022-10-08T14:55:49.247Z,100679.47
2022-10-08T15:01:00.278Z,100680.44
2022-10-08T15:06:13.969Z,100680.91
2022-10-08T15:11:29.332Z,100692.94
2022-10-08T15:16:38.646Z,100696.53
2022-10-08T15:21:55.495Z,100697.84
2022-10-08T15:27:15.245Z,100696.13
2022-10-08T15:32:30.489Z,100706.66
2022-10-08T15:37:39.149Z,100705.09
2022-10-08T15:43:08.453Z,100715.47
2022-10-08T15:48:19.549Z,100725.72
2022-10-08T15:53:29.003Z,100727.38
2022-10-08T15:58:50.807Z,100735.69
2022-10-08T16:04:06.186Z,100748.50
2022-10-08T16:09:17.130Z,100748.97
2022-10-08T16:14:38.131Z,100753.69
2022-10-08T16:20:04.249Z,100763.88
2022-10-08T16:25:18.591Z,100781.44
2022-10-08T16:30:36.687Z,100796.38
2022-10-08T16:35:46.768Z,100811.13
2022-10-08T16:40:56.283Z,100828.66
2022-10-08T16:46:05.135Z,100834.25
2022-10-08T16:51:12.429Z,100852.75
2022-10-08T16:56:18.416Z,100861.81
2022-10-08T17:01:25.721Z,100863.94
2022-10-08T17:06:36.109Z,100874.28
2022-10-08T17:11:49.075Z,100874.03
2022-10-08T17:17:07.092Z,100898.03
2022-10-08T17:22:19.212Z,100904.56
2022-10-08T17:27:28.514Z,100918.03
2022-10-08T17:32:53.114Z,100923.28
2022-10-08T17:38:01.194Z,100930.06
2022-10-08T17:43:09.905Z,100938.38
2022-10-08T17:48:23.846Z,100937.81
2022-10-08T17:53:32.265Z,100943.38
2022-10-08T17:58:47.001Z,100947.66
2022-10-08T18:04:09.827Z,100955.69
2022-10-08T18:09:19.955Z,100957.63
2022-10-08T18:14:26.695Z,100981.31
2022-10-08T18:19:38.491Z,100980.47
2022-10-08T18:24:47.033Z,100991.38
2022-10-08T18:29:52.395Z,101005.03
2022-10-08T18:35:00.928Z,101014.94
2022-10-08T18:40:12.968Z,101023.97
2022-10-08T18:45:21.527Z,101031.69
2022-10-08T18:50:35.374Z,101045.50
2022-10-08T18:55:42.726Z,101050.44
2022-10-08T19:00:52.172Z,101051.44
2022-10-08T19:05:59.666Z,101054.00
2022-10-08T19:11:14.336Z,101057.53
2022-10-08T19:16:23.299Z,101057.56
2022-10-08T19:21:37.191Z,101068.94
2022-10-08T19:26:42.445Z,101076.75
2022-10-08T19:32:03.591Z,101080.13
2022-10-08T19:37:10.056Z,101093.00
2022-10-08T19:42:16.941Z,101102.44
2022-10-08T19:47:32.641Z,101108.19
2022-10-08T19:52:43.185Z,101108.06
2022-10-08T19:57:55.587Z,101111.28
2022-10-08T20:03:15.733Z,101118.09
2022-10-08T20:08:24.387Z,101128.31
2022-10-08T20:13:30.778Z,101140.97
2022-10-08T20:18:39.245Z,101149.44
2022-10-08T20:23:47.404Z,101147.16
2022-10-08T20:29:07.910Z,101153.81
2022-10-08T20:34:28.345Z,101163.94
2022-10-08T20:39:34.878Z,101166.41
2022-10-08T20:44:39.670Z,101173.09
2022-10-08T20:49:46.159Z,101172.69
2022-10-08T20:54:52.336Z,101180.09
2022-10-08T20:59:59.957Z,101189.31
2022-10-08T21:05:08.249Z,101186.09
2022-10-08T21:10:15.656Z,101195.34
2022-10-08T21:15:27.156Z,101202.72
2022-10-08T21:20:38.778Z,101207.56
2022-10-08T21:25:50.251Z,101215.84
2022-10-08T21:30:55.168Z,101209.28
2022-10-08T21:36:11.322Z,101214.94
2022-10-08T21:41:32.617Z,101220.38
2022-10-08T21:46:50.676Z,101221.66
2022-10-08T21:51:56.487Z,101229.88
2022-10-08T21:57:16.085Z,101230.19
2022-10-08T22:02:27.667Z,101226.13
2022-10-08T22:07:34.242Z,101240.25
2022-10-08T22:12:57.761Z,101237.84
2022-10-08T22:18:09.268Z,101233.03
2022-10-08T22:23:18.616Z,101240.28
2022-10-08T22:28:29.822Z,101252.00
2022-10-08T22:33:37.594Z,101249.91
2022-10-08T22:38:49.434Z,101250.00
2022-10-08T22:44:00.938Z,101256.50
2022-10-08T22:49:16.438Z,101247.31
2022-10-08T22:54:25.344Z,101250.22
2022-10-08T22:59:42.918Z,101254.00
2022-10-08T23:05:04.369Z,101250.03
2022-10-08T23:10:26.791Z,101256.41
2022-10-08T23:16:00.509Z,101253.03
2022-10-08T23:21:12.781Z,101258.69
2022-10-08T23:26:29.092Z,101258.25
2022-10-08T23:31:38.096Z,101260.28
2022-10-08T23:36:47.074Z,101264.00
2022-10-08T23:41:55.303Z,101278.13
2022-10-08T23:47:22.384Z,101276.56
2022-10-08T23:52:32.130Z,101276.97
2022-10-08T23:57:42.347Z,101278.94
